UAL44 KLAX-KSFO
Flight info
| Callsign | UAL44 |
|---|---|
| Flight time | 1h 0m |
| Altitude | 34000 |
| Route | SUMMR2 STOKD SERFR SERFR4 |
| Aircraft | A21N/M-SDE3FGHIRWY/LB1 |
Departure
| Time | 2026-04-21 00:47 |
|---|---|
| Airport | Los Angeles International Airport (KLAX) |
Arrival
| Time | 2026-04-21 01:47 |
|---|---|
| Airport | San Francisco International Airport (KSFO) |
| Time | Latitude | Longitude | Altitude | Speed | Heading |
|---|---|---|---|---|---|
| 2026-04-21 00:12 | 33.94159 | -118.40023 | 129 ft | 0 kts | 95° |
| 2026-04-21 00:29 | 33.94159 | -118.40035 | 130 ft | 2 kts | 95° |
| 2026-04-21 00:29 | 33.94162 | -118.40052 | 130 ft | 2 kts | 115° |
| 2026-04-21 00:30 | 33.94170 | -118.40068 | 130 ft | 2 kts | 127° |
| 2026-04-21 00:30 | 33.94180 | -118.40081 | 130 ft | 2 kts | 142° |
| 2026-04-21 00:30 | 33.94193 | -118.40090 | 131 ft | 2 kts | 157° |
| 2026-04-21 00:30 | 33.94207 | -118.40095 | 131 ft | 1 kts | 171° |
| 2026-04-21 00:31 | 33.94208 | -118.40095 | 131 ft | 1 kts | 172° |
| 2026-04-21 00:31 | 33.94178 | -118.40091 | 131 ft | 3 kts | 173° |
| 2026-04-21 00:31 | 33.94169 | -118.40089 | 131 ft | 0 kts | 173° |
| 2026-04-21 00:31 | 33.94168 | -118.40089 | 131 ft | 0 kts | 173° |
| 2026-04-21 00:35 | 33.94167 | -118.40089 | 131 ft | 1 kts | 174° |
| 2026-04-21 00:35 | 33.94139 | -118.40085 | 131 ft | 4 kts | 174° |
| 2026-04-21 00:36 | 33.94101 | -118.40080 | 130 ft | 6 kts | 174° |
| 2026-04-21 00:36 | 33.94050 | -118.40072 | 129 ft | 8 kts | 171° |
| 2026-04-21 00:36 | 33.93987 | -118.40062 | 129 ft | 9 kts | 173° |
| 2026-04-21 00:36 | 33.93950 | -118.40114 | 129 ft | 9 kts | 265° |
| 2026-04-21 00:37 | 33.93941 | -118.40192 | 130 ft | 11 kts | 263° |
| 2026-04-21 00:37 | 33.93930 | -118.40297 | 130 ft | 12 kts | 263° |
| 2026-04-21 00:37 | 33.93920 | -118.40396 | 132 ft | 11 kts | 263° |
| 2026-04-21 00:37 | 33.93911 | -118.40489 | 133 ft | 10 kts | 264° |
| 2026-04-21 00:38 | 33.93903 | -118.40569 | 135 ft | 8 kts | 263° |
| 2026-04-21 00:38 | 33.93896 | -118.40639 | 135 ft | 8 kts | 263° |
| 2026-04-21 00:38 | 33.93889 | -118.40707 | 136 ft | 8 kts | 263° |
| 2026-04-21 00:38 | 33.93881 | -118.40788 | 136 ft | 10 kts | 263° |
| 2026-04-21 00:39 | 33.93871 | -118.40875 | 137 ft | 10 kts | 262° |
| 2026-04-21 00:39 | 33.93861 | -118.40969 | 136 ft | 11 kts | 263° |
| 2026-04-21 00:39 | 33.93851 | -118.41069 | 136 ft | 12 kts | 264° |
| 2026-04-21 00:39 | 33.93841 | -118.41174 | 135 ft | 13 kts | 262° |
| 2026-04-21 00:40 | 33.93846 | -118.41251 | 133 ft | 8 kts | 322° |
| 2026-04-21 00:40 | 33.93923 | -118.41272 | 130 ft | 13 kts | 353° |
| 2026-04-21 00:40 | 33.94025 | -118.41287 | 129 ft | 14 kts | 353° |
| 2026-04-21 00:40 | 33.94128 | -118.41303 | 129 ft | 15 kts | 354° |
| 2026-04-21 00:41 | 33.94231 | -118.41317 | 130 ft | 14 kts | 352° |
| 2026-04-21 00:41 | 33.94340 | -118.41333 | 127 ft | 17 kts | 353° |
| 2026-04-21 00:41 | 33.94456 | -118.41351 | 128 ft | 16 kts | 352° |
| 2026-04-21 00:41 | 33.94566 | -118.41367 | 129 ft | 15 kts | 354° |
| 2026-04-21 00:42 | 33.94671 | -118.41383 | 130 ft | 15 kts | 352° |
| 2026-04-21 00:42 | 33.94760 | -118.41389 | 130 ft | 10 kts | 19° |
| 2026-04-21 00:42 | 33.94791 | -118.41314 | 131 ft | 10 kts | 82° |
| 2026-04-21 00:42 | 33.94801 | -118.41225 | 132 ft | 11 kts | 82° |
| 2026-04-21 00:43 | 33.94811 | -118.41130 | 132 ft | 11 kts | 83° |
| 2026-04-21 00:43 | 33.94821 | -118.41029 | 132 ft | 12 kts | 83° |
| 2026-04-21 00:43 | 33.94832 | -118.40920 | 132 ft | 13 kts | 84° |
| 2026-04-21 00:43 | 33.94844 | -118.40803 | 132 ft | 14 kts | 82° |
| 2026-04-21 00:44 | 33.94857 | -118.40677 | 131 ft | 15 kts | 84° |
| 2026-04-21 00:44 | 33.94871 | -118.40543 | 130 ft | 16 kts | 84° |
| 2026-04-21 00:44 | 33.94886 | -118.40399 | 129 ft | 17 kts | 83° |
| 2026-04-21 00:45 | 33.94913 | -118.40144 | 127 ft | 13 kts | 83° |
| 2026-04-21 00:45 | 33.94923 | -118.40031 | 126 ft | 11 kts | 84° |
| 2026-04-21 00:45 | 33.94946 | -118.39928 | 123 ft | 13 kts | 46° |
| 2026-04-21 00:45 | 33.95034 | -118.39938 | 122 ft | 14 kts | 302° |
| 2026-04-21 00:46 | 33.95032 | -118.40051 | 123 ft | 13 kts | 261° |
| 2026-04-21 00:46 | 33.95012 | -118.40228 | 125 ft | 48 kts | 263° |
| 2026-04-21 00:46 | 33.94936 | -118.40974 | 132 ft | 129 kts | 263° |
| 2026-04-21 00:46 | 33.94806 | -118.42285 | 408 ft | 171 kts | 263° |
| 2026-04-21 00:47 | 33.94667 | -118.43679 | 1262 ft | 175 kts | 262° |
| 2026-04-21 00:47 | 33.94481 | -118.45148 | 2027 ft | 189 kts | 261° |
| 2026-04-21 00:47 | 33.94278 | -118.46822 | 2535 ft | 200 kts | 263° |
| 2026-04-21 00:47 | 33.94099 | -118.48434 | 2622 ft | 208 kts | 262° |
| 2026-04-21 00:48 | 33.93877 | -118.50349 | 2880 ft | 242 kts | 262° |
| 2026-04-21 00:48 | 33.93650 | -118.52253 | 2996 ft | 221 kts | 263° |
| 2026-04-21 00:48 | 33.93572 | -118.54045 | 3190 ft | 213 kts | 269° |
| 2026-04-21 00:48 | 33.93547 | -118.55830 | 3388 ft | 216 kts | 268° |
| 2026-04-21 00:49 | 33.93477 | -118.57725 | 3752 ft | 238 kts | 267° |
| 2026-04-21 00:49 | 33.93383 | -118.59765 | 4332 ft | 253 kts | 266° |
| 2026-04-21 00:49 | 33.93282 | -118.61944 | 4916 ft | 267 kts | 266° |
| 2026-04-21 00:49 | 33.93177 | -118.64168 | 5707 ft | 272 kts | 265° |
| 2026-04-21 00:50 | 33.93014 | -118.66449 | 6549 ft | 275 kts | 263° |
| 2026-04-21 00:50 | 33.92838 | -118.68737 | 7350 ft | 279 kts | 262° |
| 2026-04-21 00:50 | 33.92655 | -118.71083 | 8152 ft | 282 kts | 262° |
| 2026-04-21 00:50 | 33.92471 | -118.73425 | 8942 ft | 285 kts | 262° |
| 2026-04-21 00:51 | 33.92287 | -118.75761 | 9695 ft | 287 kts | 262° |
| 2026-04-21 00:51 | 33.92117 | -118.77925 | 10381 ft | 290 kts | 261° |
| 2026-04-21 00:51 | 33.91922 | -118.80375 | 10842 ft | 302 kts | 262° |
| 2026-04-21 00:51 | 33.91763 | -118.82906 | 11424 ft | 311 kts | 264° |
| 2026-04-21 00:52 | 33.91763 | -118.85513 | 12173 ft | 314 kts | 268° |
| 2026-04-21 00:52 | 33.91837 | -118.88114 | 12874 ft | 316 kts | 268° |
| 2026-04-21 00:52 | 33.91920 | -118.90778 | 13578 ft | 318 kts | 268° |
| 2026-04-21 00:52 | 33.92000 | -118.93415 | 14223 ft | 320 kts | 268° |
| 2026-04-21 00:53 | 33.92080 | -118.96072 | 14857 ft | 322 kts | 268° |
| 2026-04-21 00:53 | 33.92162 | -118.98756 | 15483 ft | 325 kts | 268° |
| 2026-04-21 00:53 | 33.92535 | -119.01461 | 16065 ft | 334 kts | 281° |
| 2026-04-21 00:53 | 33.93457 | -119.04067 | 16657 ft | 344 kts | 294° |
| 2026-04-21 00:54 | 33.94694 | -119.06522 | 17252 ft | 347 kts | 296° |
| 2026-04-21 00:54 | 33.95995 | -119.08989 | 17812 ft | 350 kts | 296° |
| 2026-04-21 00:54 | 33.97301 | -119.11474 | 18374 ft | 353 kts | 296° |
| 2026-04-21 00:54 | 33.98605 | -119.13982 | 18899 ft | 356 kts | 296° |
| 2026-04-21 00:55 | 33.99956 | -119.16529 | 19339 ft | 364 kts | 300° |
| 2026-04-21 00:55 | 34.01593 | -119.18870 | 19815 ft | 374 kts | 309° |
| 2026-04-21 00:55 | 34.03601 | -119.20933 | 20340 ft | 381 kts | 318° |
| 2026-04-21 00:55 | 34.05759 | -119.22813 | 20853 ft | 385 kts | 320° |
| 2026-04-21 00:56 | 34.07960 | -119.24674 | 21339 ft | 388 kts | 320° |
| 2026-04-21 00:56 | 34.10148 | -119.26521 | 21817 ft | 391 kts | 320° |
| 2026-04-21 00:56 | 34.12387 | -119.28426 | 22301 ft | 393 kts | 320° |
| 2026-04-21 00:56 | 34.14613 | -119.30330 | 22753 ft | 395 kts | 320° |
| 2026-04-21 00:57 | 34.16864 | -119.32265 | 23194 ft | 398 kts | 320° |
| 2026-04-21 00:57 | 34.19140 | -119.34224 | 23615 ft | 401 kts | 319° |
| 2026-04-21 00:57 | 34.21390 | -119.36165 | 24041 ft | 403 kts | 320° |
| 2026-04-21 00:57 | 34.23678 | -119.38139 | 24481 ft | 404 kts | 319° |
| 2026-04-21 00:58 | 34.25982 | -119.40128 | 24932 ft | 405 kts | 319° |
| 2026-04-21 00:58 | 34.28254 | -119.42092 | 25345 ft | 407 kts | 319° |
| 2026-04-21 00:58 | 34.30559 | -119.44086 | 25763 ft | 408 kts | 319° |
| 2026-04-21 00:58 | 34.32887 | -119.46102 | 26183 ft | 409 kts | 319° |
| 2026-04-21 00:59 | 34.35178 | -119.48084 | 26570 ft | 411 kts | 319° |
| 2026-04-21 00:59 | 34.37500 | -119.50100 | 26940 ft | 412 kts | 319° |
| 2026-04-21 00:59 | 34.39822 | -119.52198 | 27312 ft | 412 kts | 316° |
| 2026-04-21 00:59 | 34.41985 | -119.54408 | 27639 ft | 412 kts | 313° |
| 2026-04-21 01:00 | 34.44054 | -119.56807 | 28004 ft | 411 kts | 310° |
| 2026-04-21 01:00 | 34.46087 | -119.59294 | 28349 ft | 413 kts | 309° |
| 2026-04-21 01:00 | 34.47534 | -119.61079 | 28586 ft | 414 kts | 309° |
| 2026-04-21 01:00 | 34.49594 | -119.63624 | 28936 ft | 415 kts | 309° |
| 2026-04-21 01:01 | 34.51646 | -119.66157 | 29292 ft | 417 kts | 309° |
| 2026-04-21 01:01 | 34.53669 | -119.68654 | 29757 ft | 415 kts | 309° |
| 2026-04-21 01:01 | 34.54795 | -119.70041 | 30016 ft | 414 kts | 308° |
| 2026-04-21 01:01 | 34.55776 | -119.71249 | 30213 ft | 414 kts | 308° |
| 2026-04-21 01:02 | 34.56756 | -119.72458 | 30389 ft | 415 kts | 308° |
| 2026-04-21 01:02 | 34.57671 | -119.73586 | 30527 ft | 416 kts | 308° |
| 2026-04-21 01:02 | 34.58707 | -119.74865 | 30656 ft | 417 kts | 308° |
| 2026-04-21 01:02 | 34.60729 | -119.77371 | 30930 ft | 420 kts | 308° |
| 2026-04-21 01:03 | 34.62799 | -119.79929 | 31244 ft | 422 kts | 308° |
| 2026-04-21 01:03 | 34.64865 | -119.82484 | 31554 ft | 424 kts | 308° |
| 2026-04-21 01:03 | 34.66925 | -119.85033 | 31848 ft | 426 kts | 308° |
| 2026-04-21 01:03 | 34.68991 | -119.87594 | 32132 ft | 427 kts | 308° |
| 2026-04-21 01:04 | 34.71080 | -119.90185 | 32418 ft | 429 kts | 308° |
| 2026-04-21 01:04 | 34.73174 | -119.92778 | 32728 ft | 431 kts | 308° |
| 2026-04-21 01:04 | 34.75288 | -119.95405 | 32974 ft | 433 kts | 308° |
| 2026-04-21 01:04 | 34.77377 | -119.98003 | 33237 ft | 435 kts | 308° |
| 2026-04-21 01:05 | 34.79516 | -120.00665 | 33475 ft | 437 kts | 308° |
| 2026-04-21 01:05 | 34.81634 | -120.03300 | 33778 ft | 439 kts | 308° |
| 2026-04-21 01:05 | 34.83770 | -120.05961 | 33994 ft | 440 kts | 308° |
| 2026-04-21 01:05 | 34.85926 | -120.08649 | 34003 ft | 440 kts | 308° |
| 2026-04-21 01:06 | 34.90181 | -120.13958 | 34011 ft | 439 kts | 308° |
| 2026-04-21 01:06 | 34.94430 | -120.19270 | 34045 ft | 440 kts | 308° |
| 2026-04-21 01:07 | 34.98698 | -120.24616 | 34006 ft | 440 kts | 307° |
| 2026-04-21 01:07 | 35.02965 | -120.29971 | 33999 ft | 440 kts | 308° |
| 2026-04-21 01:08 | 35.07206 | -120.35301 | 34033 ft | 440 kts | 308° |
| 2026-04-21 01:08 | 35.11662 | -120.40518 | 34001 ft | 443 kts | 311° |
| 2026-04-21 01:09 | 35.16213 | -120.45599 | 34027 ft | 442 kts | 311° |
| 2026-04-21 01:09 | 35.20777 | -120.50708 | 34040 ft | 444 kts | 311° |
| 2026-04-21 01:10 | 35.25332 | -120.55819 | 34031 ft | 444 kts | 311° |
| 2026-04-21 01:10 | 35.29868 | -120.60922 | 34037 ft | 445 kts | 311° |
| 2026-04-21 01:11 | 35.34445 | -120.66080 | 34040 ft | 444 kts | 311° |
| 2026-04-21 01:11 | 35.38980 | -120.71199 | 34035 ft | 444 kts | 311° |
| 2026-04-21 01:12 | 35.43504 | -120.76315 | 34028 ft | 444 kts | 310° |
| 2026-04-21 01:12 | 35.48085 | -120.81422 | 34004 ft | 446 kts | 313° |
| 2026-04-21 01:13 | 35.52961 | -120.86104 | 33977 ft | 447 kts | 316° |
| 2026-04-21 01:13 | 35.57938 | -120.90701 | 33974 ft | 447 kts | 316° |
| 2026-04-21 01:14 | 35.62894 | -120.95296 | 33981 ft | 446 kts | 316° |
| 2026-04-21 01:14 | 35.67824 | -120.99880 | 33971 ft | 446 kts | 316° |
| 2026-04-21 01:15 | 35.72786 | -121.04504 | 33967 ft | 446 kts | 316° |
| 2026-04-21 01:15 | 35.77707 | -121.09099 | 33968 ft | 446 kts | 316° |
| 2026-04-21 01:16 | 35.82664 | -121.13733 | 33967 ft | 446 kts | 316° |
| 2026-04-21 01:16 | 35.87591 | -121.18349 | 33966 ft | 447 kts | 316° |
| 2026-04-21 01:17 | 35.92519 | -121.22974 | 33963 ft | 446 kts | 316° |
| 2026-04-21 01:17 | 35.97478 | -121.27634 | 33959 ft | 447 kts | 316° |
| 2026-04-21 01:18 | 36.02392 | -121.32257 | 33950 ft | 446 kts | 315° |
| 2026-04-21 01:18 | 36.07357 | -121.36827 | 33952 ft | 448 kts | 319° |
| 2026-04-21 01:19 | 36.12635 | -121.41000 | 33949 ft | 449 kts | 321° |
| 2026-04-21 01:19 | 36.17935 | -121.45112 | 33943 ft | 449 kts | 321° |
| 2026-04-21 01:20 | 36.20575 | -121.47166 | 33749 ft | 445 kts | 321° |
| 2026-04-21 01:20 | 36.23189 | -121.49204 | 33205 ft | 443 kts | 321° |
| 2026-04-21 01:20 | 36.25784 | -121.51234 | 32554 ft | 442 kts | 321° |
| 2026-04-21 01:20 | 36.28352 | -121.53244 | 31938 ft | 442 kts | 320° |
| 2026-04-21 01:21 | 36.30955 | -121.55286 | 31216 ft | 443 kts | 320° |
| 2026-04-21 01:21 | 36.33566 | -121.57339 | 30534 ft | 443 kts | 321° |
| 2026-04-21 01:21 | 36.36165 | -121.59377 | 30024 ft | 439 kts | 320° |
| 2026-04-21 01:21 | 36.38710 | -121.61372 | 29499 ft | 436 kts | 320° |
| 2026-04-21 01:22 | 36.41273 | -121.63389 | 28986 ft | 433 kts | 320° |
| 2026-04-21 01:22 | 36.43802 | -121.65380 | 28459 ft | 430 kts | 319° |
| 2026-04-21 01:22 | 36.46303 | -121.67350 | 27928 ft | 428 kts | 319° |
| 2026-04-21 01:22 | 36.48821 | -121.69338 | 27379 ft | 427 kts | 319° |
| 2026-04-21 01:23 | 36.51297 | -121.71291 | 26907 ft | 423 kts | 319° |
| 2026-04-21 01:23 | 36.53794 | -121.73260 | 26427 ft | 420 kts | 319° |
| 2026-04-21 01:23 | 36.56251 | -121.75201 | 25917 ft | 418 kts | 319° |
| 2026-04-21 01:23 | 36.58683 | -121.77128 | 25412 ft | 416 kts | 319° |
| 2026-04-21 01:24 | 36.61116 | -121.79057 | 24904 ft | 414 kts | 319° |
| 2026-04-21 01:24 | 36.63515 | -121.80959 | 24424 ft | 411 kts | 320° |
| 2026-04-21 01:24 | 36.65940 | -121.82880 | 23918 ft | 409 kts | 319° |
| 2026-04-21 01:24 | 36.68317 | -121.84767 | 23427 ft | 407 kts | 319° |
| 2026-04-21 01:25 | 36.70702 | -121.86664 | 22921 ft | 406 kts | 319° |
| 2026-04-21 01:25 | 36.73092 | -121.88493 | 22479 ft | 408 kts | 324° |
| 2026-04-21 01:25 | 36.75737 | -121.89886 | 22037 ft | 414 kts | 336° |
| 2026-04-21 01:25 | 36.78515 | -121.90779 | 21612 ft | 415 kts | 342° |
| 2026-04-21 01:26 | 36.81347 | -121.91536 | 21171 ft | 413 kts | 343° |
| 2026-04-21 01:26 | 36.84160 | -121.92261 | 20739 ft | 411 kts | 343° |
| 2026-04-21 01:26 | 36.86940 | -121.92999 | 20314 ft | 409 kts | 342° |
| 2026-04-21 01:26 | 36.89723 | -121.93760 | 19914 ft | 407 kts | 342° |
| 2026-04-21 01:27 | 36.92446 | -121.94521 | 19504 ft | 404 kts | 342° |
| 2026-04-21 01:27 | 36.95171 | -121.95316 | 19092 ft | 400 kts | 340° |
| 2026-04-21 01:27 | 36.97851 | -121.96290 | 18697 ft | 396 kts | 338° |
| 2026-04-21 01:27 | 37.00388 | -121.97280 | 18302 ft | 393 kts | 337° |
| 2026-04-21 01:28 | 37.02959 | -121.98299 | 17888 ft | 391 kts | 337° |
| 2026-04-21 01:28 | 37.05555 | -121.99327 | 17490 ft | 389 kts | 338° |
| 2026-04-21 01:28 | 37.07498 | -122.00092 | 17145 ft | 388 kts | 338° |
| 2026-04-21 01:28 | 37.10073 | -122.01103 | 16745 ft | 386 kts | 338° |
| 2026-04-21 01:29 | 37.12616 | -122.02097 | 16478 ft | 376 kts | 338° |
| 2026-04-21 01:29 | 37.15112 | -122.03069 | 16277 ft | 366 kts | 338° |
| 2026-04-21 01:29 | 37.17527 | -122.04014 | 15961 ft | 361 kts | 338° |
| 2026-04-21 01:29 | 37.19913 | -122.04954 | 15549 ft | 359 kts | 338° |
| 2026-04-21 01:30 | 37.22305 | -122.05894 | 15165 ft | 357 kts | 338° |
| 2026-04-21 01:30 | 37.24649 | -122.06812 | 14863 ft | 351 kts | 338° |
| 2026-04-21 01:30 | 37.26956 | -122.07717 | 14687 ft | 342 kts | 338° |
| 2026-04-21 01:30 | 37.29199 | -122.08598 | 14517 ft | 332 kts | 339° |
| 2026-04-21 01:31 | 37.31364 | -122.09448 | 14349 ft | 323 kts | 338° |
| 2026-04-21 01:31 | 37.33494 | -122.10285 | 14156 ft | 315 kts | 338° |
| 2026-04-21 01:31 | 37.35564 | -122.11100 | 13842 ft | 312 kts | 338° |
| 2026-04-21 01:31 | 37.37618 | -122.11912 | 13505 ft | 311 kts | 340° |
| 2026-04-21 01:32 | 37.39698 | -122.12652 | 13148 ft | 310 kts | 341° |
| 2026-04-21 01:32 | 37.41788 | -122.13365 | 12825 ft | 308 kts | 342° |
| 2026-04-21 01:32 | 37.43836 | -122.14059 | 12508 ft | 306 kts | 342° |
| 2026-04-21 01:32 | 37.45890 | -122.14751 | 12184 ft | 305 kts | 342° |
| 2026-04-21 01:33 | 37.47951 | -122.15434 | 11837 ft | 304 kts | 342° |
| 2026-04-21 01:33 | 37.49979 | -122.16099 | 11516 ft | 302 kts | 342° |
| 2026-04-21 01:33 | 37.52018 | -122.16767 | 11187 ft | 301 kts | 343° |
| 2026-04-21 01:33 | 37.53994 | -122.17584 | 10815 ft | 296 kts | 325° |
| 2026-04-21 01:34 | 37.55413 | -122.19260 | 10426 ft | 275 kts | 289° |
| 2026-04-21 01:34 | 37.56071 | -122.21445 | 10149 ft | 260 kts | 276° |
| 2026-04-21 01:34 | 37.56337 | -122.23590 | 9784 ft | 243 kts | 254° |
| 2026-04-21 01:34 | 37.55798 | -122.25489 | 9439 ft | 224 kts | 229° |
| 2026-04-21 01:35 | 37.54792 | -122.26912 | 9071 ft | 214 kts | 210° |
| 2026-04-21 01:35 | 37.53513 | -122.27879 | 8729 ft | 211 kts | 204° |
| 2026-04-21 01:35 | 37.52218 | -122.28720 | 8418 ft | 208 kts | 203° |
| 2026-04-21 01:35 | 37.50880 | -122.29244 | 8233 ft | 199 kts | 180° |
| 2026-04-21 01:36 | 37.49583 | -122.28728 | 7984 ft | 200 kts | 151° |
| 2026-04-21 01:36 | 37.48499 | -122.27612 | 7682 ft | 202 kts | 144° |
| 2026-04-21 01:36 | 37.47472 | -122.26389 | 7337 ft | 204 kts | 143° |
| 2026-04-21 01:36 | 37.46453 | -122.25155 | 6968 ft | 205 kts | 143° |
| 2026-04-21 01:37 | 37.45421 | -122.23901 | 6594 ft | 207 kts | 142° |
| 2026-04-21 01:37 | 37.44537 | -122.22450 | 6216 ft | 217 kts | 124° |
| 2026-04-21 01:37 | 37.43924 | -122.20670 | 5845 ft | 220 kts | 119° |
| 2026-04-21 01:37 | 37.43391 | -122.18886 | 5468 ft | 218 kts | 117° |
| 2026-04-21 01:38 | 37.42868 | -122.17102 | 5083 ft | 214 kts | 117° |
| 2026-04-21 01:38 | 37.42357 | -122.15370 | 4707 ft | 211 kts | 117° |
| 2026-04-21 01:38 | 37.41847 | -122.13648 | 4330 ft | 209 kts | 117° |
| 2026-04-21 01:38 | 37.41338 | -122.11953 | 3953 ft | 206 kts | 117° |
| 2026-04-21 01:39 | 37.40965 | -122.10205 | 3569 ft | 211 kts | 94° |
| 2026-04-21 01:39 | 37.41495 | -122.08523 | 3259 ft | 216 kts | 51° |
| 2026-04-21 01:39 | 37.42789 | -122.07638 | 2999 ft | 206 kts | 10° |
| 2026-04-21 01:39 | 37.44121 | -122.07738 | 2960 ft | 185 kts | 330° |
| 2026-04-21 01:40 | 37.45071 | -122.08739 | 3026 ft | 178 kts | 304° |
| 2026-04-21 01:40 | 37.45876 | -122.09903 | 3016 ft | 176 kts | 303° |
| 2026-04-21 01:40 | 37.46685 | -122.11086 | 3008 ft | 175 kts | 303° |
| 2026-04-21 01:40 | 37.47487 | -122.12239 | 3003 ft | 175 kts | 304° |
| 2026-04-21 01:41 | 37.48311 | -122.13409 | 3018 ft | 184 kts | 304° |
| 2026-04-21 01:41 | 37.49176 | -122.14624 | 3014 ft | 185 kts | 305° |
| 2026-04-21 01:41 | 37.50044 | -122.15835 | 3007 ft | 185 kts | 306° |
| 2026-04-21 01:41 | 37.50903 | -122.17030 | 3004 ft | 185 kts | 306° |
| 2026-04-21 01:42 | 37.51762 | -122.18220 | 2993 ft | 178 kts | 306° |
| 2026-04-21 01:42 | 37.52556 | -122.19314 | 2932 ft | 163 kts | 306° |
| 2026-04-21 01:42 | 37.53299 | -122.20335 | 2838 ft | 153 kts | 305° |
| 2026-04-21 01:42 | 37.53994 | -122.21303 | 2575 ft | 147 kts | 305° |
| 2026-04-21 01:43 | 37.54680 | -122.22264 | 2102 ft | 149 kts | 305° |
| 2026-04-21 01:43 | 37.55370 | -122.23231 | 1825 ft | 149 kts | 305° |
| 2026-04-21 01:43 | 37.56067 | -122.24203 | 1815 ft | 151 kts | 305° |
| 2026-04-21 01:43 | 37.56726 | -122.25228 | 1808 ft | 149 kts | 300° |
| 2026-04-21 01:44 | 37.57303 | -122.26302 | 1691 ft | 148 kts | 296° |
| 2026-04-21 01:44 | 37.57849 | -122.27396 | 1497 ft | 146 kts | 295° |
| 2026-04-21 01:44 | 37.58347 | -122.28509 | 1306 ft | 145 kts | 293° |
| 2026-04-21 01:44 | 37.58818 | -122.29632 | 1115 ft | 145 kts | 291° |
| 2026-04-21 01:45 | 37.59279 | -122.30746 | 925 ft | 145 kts | 292° |
| 2026-04-21 01:45 | 37.59753 | -122.31880 | 732 ft | 144 kts | 293° |
| 2026-04-21 01:45 | 37.60107 | -122.32711 | 591 ft | 144 kts | 294° |
| 2026-04-21 01:45 | 37.60569 | -122.33833 | 409 ft | 144 kts | 294° |
| 2026-04-21 01:46 | 37.61029 | -122.34934 | 217 ft | 143 kts | 296° |
| 2026-04-21 01:46 | 37.61496 | -122.36052 | 38 ft | 142 kts | 296° |
| 2026-04-21 01:46 | 37.61911 | -122.37047 | 17 ft | 107 kts | 297° |
| 2026-04-21 01:46 | 37.62181 | -122.37689 | 25 ft | 58 kts | 298° |
| 2026-04-21 01:47 | 37.62298 | -122.37968 | 28 ft | 23 kts | 297° |
| 2026-04-21 01:47 | 37.62365 | -122.38132 | 28 ft | 15 kts | 297° |
| 2026-04-21 01:47 | 37.62327 | -122.38229 | 29 ft | 13 kts | 208° |
| 2026-04-21 01:47 | 37.62241 | -122.38277 | 30 ft | 13 kts | 196° |
| 2026-04-21 01:48 | 37.62155 | -122.38310 | 31 ft | 12 kts | 198° |
| 2026-04-21 01:48 | 37.62071 | -122.38341 | 32 ft | 12 kts | 199° |
| 2026-04-21 01:48 | 37.62068 | -122.38418 | 32 ft | 10 kts | 308° |
| 2026-04-21 01:48 | 37.62094 | -122.38504 | 32 ft | 10 kts | 291° |
| 2026-04-21 01:49 | 37.62134 | -122.38600 | 32 ft | 13 kts | 300° |
| 2026-04-21 01:49 | 37.62161 | -122.38681 | 31 ft | 6 kts | 265° |
| 2026-04-21 01:49 | 37.62132 | -122.38729 | 31 ft | 7 kts | 218° |
| 2026-04-21 01:49 | 37.62093 | -122.38760 | 31 ft | 5 kts | 208° |
| 2026-04-21 01:50 | 37.62072 | -122.38774 | 32 ft | 0 kts | 208° |